sensor_id;sensor_type;location;lat;lon;timestamp;temperature;humidity
9943;DHT22;5010;45.080;7.634;2023-02-15T00:01:30;20.20;1.00
9943;DHT22;5010;45.080;7.634;2023-02-15T00:03:57;20.20;1.00
9943;DHT22;5010;45.080;7.634;2023-02-15T00:06:24;20.20;1.00
9943;DHT22;5010;45.080;7.634;2023-02-15T00:08:52;20.20;1.00
9943;DHT22;5010;45.080;7.634;2023-02-15T00:11:21;20.20;1.00
9943;DHT22;5010;45.080;7.634;2023-02-15T00:14:02;20.20;1.00
9943;DHT22;5010;45.080;7.634;2023-02-15T00:16:29;20.10;1.00
9943;DHT22;5010;45.080;7.634;2023-02-15T00:18:56;20.20;1.00
9943;DHT22;5010;45.080;7.634;2023-02-15T00:21:23;20.10;1.00
9943;DHT22;5010;45.080;7.634;2023-02-15T00:23:50;20.10;1.00
9943;DHT22;5010;45.080;7.634;2023-02-15T00:26:16;20.10;1.00
9943;DHT22;5010;45.080;7.634;2023-02-15T00:28:45;20.10;1.00
9943;DHT22;5010;45.080;7.634;2023-02-15T00:31:12;20.10;1.00
9943;DHT22;5010;45.080;7.634;2023-02-15T00:33:39;20.10;1.00
9943;DHT22;5010;45.080;7.634;2023-02-15T00:36:08;20.10;1.00
9943;DHT22;5010;45.080;7.634;2023-02-15T00:38:36;20.10;1.00
9943;DHT22;5010;45.080;7.634;2023-02-15T00:41:05;20.10;1.00
9943;DHT22;5010;45.080;7.634;2023-02-15T00:43:33;20.10;1.00
9943;DHT22;5010;45.080;7.634;2023-02-15T00:46:02;20.10;1.00
9943;DHT22;5010;45.080;7.634;2023-02-15T00:48:29;20.10;1.00
9943;DHT22;5010;45.080;7.634;2023-02-15T00:50:58;20.10;1.00
9943;DHT22;5010;45.080;7.634;2023-02-15T00:53:26;20.00;1.00
9943;DHT22;5010;45.080;7.634;2023-02-15T00:55:53;20.00;1.00
9943;DHT22;5010;45.080;7.634;2023-02-15T00:58:20;20.00;1.00
9943;DHT22;5010;45.080;7.634;2023-02-15T01:00:48;20.00;1.00
9943;DHT22;5010;45.080;7.634;2023-02-15T01:03:17;20.00;1.00
9943;DHT22;5010;45.080;7.634;2023-02-15T01:05:46;20.00;1.00
9943;DHT22;5010;45.080;7.634;2023-02-15T01:08:13;20.00;1.00
9943;DHT22;5010;45.080;7.634;2023-02-15T01:10:40;20.00;1.00
9943;DHT22;5010;45.080;7.634;2023-02-15T01:13:07;20.00;1.00
9943;DHT22;5010;45.080;7.634;2023-02-15T01:15:34;20.00;1.00
9943;DHT22;5010;45.080;7.634;2023-02-15T01:18:01;20.00;1.00
9943;DHT22;5010;45.080;7.634;2023-02-15T01:20:33;20.00;1.00
9943;DHT22;5010;45.080;7.634;2023-02-15T01:23:00;20.00;1.00
9943;DHT22;5010;45.080;7.634;2023-02-15T01:25:27;20.00;1.00
9943;DHT22;5010;45.080;7.634;2023-02-15T01:27:54;20.00;1.00
9943;DHT22;5010;45.080;7.634;2023-02-15T01:30:21;20.00;1.00
9943;DHT22;5010;45.080;7.634;2023-02-15T01:32:48;20.00;1.00
9943;DHT22;5010;45.080;7.634;2023-02-15T01:35:15;20.00;1.00
9943;DHT22;5010;45.080;7.634;2023-02-15T01:37:43;20.00;1.00
9943;DHT22;5010;45.080;7.634;2023-02-15T01:40:13;20.00;1.00
9943;DHT22;5010;45.080;7.634;2023-02-15T01:42:41;20.00;1.00
9943;DHT22;5010;45.080;7.634;2023-02-15T01:45:19;20.00;1.00
9943;DHT22;5010;45.080;7.634;2023-02-15T01:47:50;20.00;1.00
9943;DHT22;5010;45.080;7.634;2023-02-15T01:50:22;20.00;1.00
9943;DHT22;5010;45.080;7.634;2023-02-15T01:52:57;20.00;1.00
9943;DHT22;5010;45.080;7.634;2023-02-15T01:55:29;19.90;1.00
9943;DHT22;5010;45.080;7.634;2023-02-15T01:57:56;19.90;1.00
9943;DHT22;5010;45.080;7.634;2023-02-15T02:00:24;19.90;1.00
9943;DHT22;5010;45.080;7.634;2023-02-15T02:02:53;19.90;1.00
9943;DHT22;5010;45.080;7.634;2023-02-15T02:05:21;19.90;1.00
9943;DHT22;5010;45.080;7.634;2023-02-15T02:07:51;19.90;1.00
9943;DHT22;5010;45.080;7.634;2023-02-15T02:10:21;19.90;1.00
9943;DHT22;5010;45.080;7.634;2023-02-15T02:12:51;19.90;1.00
9943;DHT22;5010;45.080;7.634;2023-02-15T02:15:20;19.90;1.00
9943;DHT22;5010;45.080;7.634;2023-02-15T02:17:58;19.90;1.00
9943;DHT22;5010;45.080;7.634;2023-02-15T02:20:35;19.90;1.00
9943;DHT22;5010;45.080;7.634;2023-02-15T02:23:16;19.90;1.00
9943;DHT22;5010;45.080;7.634;2023-02-15T02:26:22;19.90;1.00
9943;DHT22;5010;45.080;7.634;2023-02-15T02:35:20;19.80;1.00
9943;DHT22;5010;45.080;7.634;2023-02-15T02:37:55;19.80;1.00
9943;DHT22;5010;45.080;7.634;2023-02-15T02:40:30;19.80;1.00
9943;DHT22;5010;45.080;7.634;2023-02-15T02:43:04;19.80;1.00
9943;DHT22;5010;45.080;7.634;2023-02-15T02:45:37;19.80;1.00
9943;DHT22;5010;45.080;7.634;2023-02-15T02:48:09;19.80;1.00
9943;DHT22;5010;45.080;7.634;2023-02-15T02:50:40;19.80;1.00
9943;DHT22;5010;45.080;7.634;2023-02-15T02:53:09;19.80;1.00
9943;DHT22;5010;45.080;7.634;2023-02-15T02:55:39;19.80;1.00
9943;DHT22;5010;45.080;7.634;2023-02-15T02:58:11;19.80;1.00
9943;DHT22;5010;45.080;7.634;2023-02-15T03:00:42;19.80;1.00
9943;DHT22;5010;45.080;7.634;2023-02-15T03:03:13;19.80;1.00
9943;DHT22;5010;45.080;7.634;2023-02-15T03:05:47;19.80;1.00
9943;DHT22;5010;45.080;7.634;2023-02-15T03:08:16;19.80;1.00
9943;DHT22;5010;45.080;7.634;2023-02-15T03:10:48;19.80;1.00
9943;DHT22;5010;45.080;7.634;2023-02-15T03:13:15;19.80;1.00
9943;DHT22;5010;45.080;7.634;2023-02-15T03:15:44;19.80;1.00
9943;DHT22;5010;45.080;7.634;2023-02-15T03:18:31;19.80;1.00
9943;DHT22;5010;45.080;7.634;2023-02-15T03:21:03;19.80;1.00
9943;DHT22;5010;45.080;7.634;2023-02-15T03:23:33;19.80;1.00
9943;DHT22;5010;45.080;7.634;2023-02-15T03:26:02;19.80;1.00
9943;DHT22;5010;45.080;7.634;2023-02-15T03:28:33;19.80;1.00
9943;DHT22;5010;45.080;7.634;2023-02-15T03:31:04;19.70;1.00
9943;DHT22;5010;45.080;7.634;2023-02-15T03:33:33;19.70;1.00
9943;DHT22;5010;45.080;7.634;2023-02-15T03:36:06;19.70;1.00
9943;DHT22;5010;45.080;7.634;2023-02-15T03:38:40;19.70;1.00
9943;DHT22;5010;45.080;7.634;2023-02-15T03:41:11;19.70;1.00
9943;DHT22;5010;45.080;7.634;2023-02-15T03:43:45;19.70;1.00
9943;DHT22;5010;45.080;7.634;2023-02-15T03:46:18;19.70;1.00
9943;DHT22;5010;45.080;7.634;2023-02-15T03:48:50;19.70;1.00
9943;DHT22;5010;45.080;7.634;2023-02-15T03:51:21;19.70;1.00
9943;DHT22;5010;45.080;7.634;2023-02-15T03:54:04;19.70;1.00
9943;DHT22;5010;45.080;7.634;2023-02-15T03:56:34;19.70;1.00
9943;DHT22;5010;45.080;7.634;2023-02-15T03:59:01;19.70;1.00
9943;DHT22;5010;45.080;7.634;2023-02-15T04:01:51;19.70;1.00
9943;DHT22;5010;45.080;7.634;2023-02-15T04:04:35;19.70;1.00
9943;DHT22;5010;45.080;7.634;2023-02-15T04:07:06;19.70;1.00
9943;DHT22;5010;45.080;7.634;2023-02-15T04:09:33;19.70;1.00
9943;DHT22;5010;45.080;7.634;2023-02-15T04:12:17;19.60;1.00
9943;DHT22;5010;45.080;7.634;2023-02-15T04:14:44;19.70;1.00
9943;DHT22;5010;45.080;7.634;2023-02-15T04:17:29;19.60;1.00
9943;DHT22;5010;45.080;7.634;2023-02-15T04:19:56;19.60;1.00
9943;DHT22;5010;45.080;7.634;2023-02-15T04:22:41;19.70;1.00
9943;DHT22;5010;45.080;7.634;2023-02-15T04:25:26;19.70;1.00
9943;DHT22;5010;45.080;7.634;2023-02-15T04:27:53;19.70;1.00
9943;DHT22;5010;45.080;7.634;2023-02-15T04:30:22;19.70;1.00
9943;DHT22;5010;45.080;7.634;2023-02-15T04:32:50;19.70;1.00
9943;DHT22;5010;45.080;7.634;2023-02-15T04:35:17;19.70;1.00
9943;DHT22;5010;45.080;7.634;2023-02-15T04:37:45;19.70;1.00
9943;DHT22;5010;45.080;7.634;2023-02-15T04:40:14;19.70;1.00
9943;DHT22;5010;45.080;7.634;2023-02-15T04:42:41;19.80;1.00
9943;DHT22;5010;45.080;7.634;2023-02-15T04:45:08;19.80;1.00
9943;DHT22;5010;45.080;7.634;2023-02-15T04:47:35;19.80;1.00
9943;DHT22;5010;45.080;7.634;2023-02-15T04:50:02;19.80;1.00
9943;DHT22;5010;45.080;7.634;2023-02-15T04:52:29;19.80;1.00
9943;DHT22;5010;45.080;7.634;2023-02-15T04:54:57;19.80;1.00
9943;DHT22;5010;45.080;7.634;2023-02-15T04:57:24;19.80;1.00
9943;DHT22;5010;45.080;7.634;2023-02-15T04:59:51;19.80;1.00
9943;DHT22;5010;45.080;7.634;2023-02-15T05:02:18;19.90;1.00
9943;DHT22;5010;45.080;7.634;2023-02-15T05:04:44;19.90;1.00
9943;DHT22;5010;45.080;7.634;2023-02-15T05:07:11;19.90;1.00
9943;DHT22;5010;45.080;7.634;2023-02-15T05:09:40;19.90;1.00
9943;DHT22;5010;45.080;7.634;2023-02-15T05:12:08;19.90;1.00
9943;DHT22;5010;45.080;7.634;2023-02-15T05:14:35;19.90;1.00
9943;DHT22;5010;45.080;7.634;2023-02-15T05:17:02;19.90;1.00
9943;DHT22;5010;45.080;7.634;2023-02-15T05:19:30;20.00;1.00
9943;DHT22;5010;45.080;7.634;2023-02-15T05:21:57;20.00;1.00
9943;DHT22;5010;45.080;7.634;2023-02-15T05:24:24;20.00;1.00
9943;DHT22;5010;45.080;7.634;2023-02-15T05:27:12;20.00;1.00
9943;DHT22;5010;45.080;7.634;2023-02-15T05:29:56;20.10;1.00
9943;DHT22;5010;45.080;7.634;2023-02-15T05:32:24;20.00;1.00
9943;DHT22;5010;45.080;7.634;2023-02-15T05:34:50;20.10;1.00
9943;DHT22;5010;45.080;7.634;2023-02-15T05:37:17;20.00;1.00
9943;DHT22;5010;45.080;7.634;2023-02-15T05:39:44;20.10;1.00
9943;DHT22;5010;45.080;7.634;2023-02-15T05:42:12;20.10;1.00
9943;DHT22;5010;45.080;7.634;2023-02-15T05:44:39;20.10;1.00
9943;DHT22;5010;45.080;7.634;2023-02-15T05:47:06;20.10;1.00
9943;DHT22;5010;45.080;7.634;2023-02-15T05:49:33;20.20;1.00
9943;DHT22;5010;45.080;7.634;2023-02-15T05:52:00;20.10;1.00
9943;DHT22;5010;45.080;7.634;2023-02-15T05:54:28;20.20;1.00
9943;DHT22;5010;45.080;7.634;2023-02-15T05:56:55;20.20;1.00
9943;DHT22;5010;45.080;7.634;2023-02-15T05:59:23;20.20;1.00
9943;DHT22;5010;45.080;7.634;2023-02-15T06:01:50;20.20;1.00
9943;DHT22;5010;45.080;7.634;2023-02-15T06:04:17;20.30;1.00
9943;DHT22;5010;45.080;7.634;2023-02-15T06:06:44;20.20;1.00
9943;DHT22;5010;45.080;7.634;2023-02-15T06:09:11;20.20;1.00
9943;DHT22;5010;45.080;7.634;2023-02-15T06:11:38;20.20;1.00
9943;DHT22;5010;45.080;7.634;2023-02-15T06:14:05;20.30;1.00
9943;DHT22;5010;45.080;7.634;2023-02-15T06:16:33;20.30;1.00
9943;DHT22;5010;45.080;7.634;2023-02-15T06:19:00;20.30;1.00
9943;DHT22;5010;45.080;7.634;2023-02-15T06:21:27;20.30;1.00
9943;DHT22;5010;45.080;7.634;2023-02-15T06:23:54;20.30;1.00
9943;DHT22;5010;45.080;7.634;2023-02-15T06:26:21;20.30;1.00
9943;DHT22;5010;45.080;7.634;2023-02-15T06:28:48;20.30;1.00
9943;DHT22;5010;45.080;7.634;2023-02-15T06:31:15;20.40;1.00
9943;DHT22;5010;45.080;7.634;2023-02-15T06:33:43;20.40;1.00
9943;DHT22;5010;45.080;7.634;2023-02-15T06:36:10;20.40;1.00
9943;DHT22;5010;45.080;7.634;2023-02-15T06:38:38;20.40;1.00
9943;DHT22;5010;45.080;7.634;2023-02-15T06:41:05;20.40;1.00
9943;DHT22;5010;45.080;7.634;2023-02-15T06:43:31;20.40;1.00
9943;DHT22;5010;45.080;7.634;2023-02-15T06:45:59;20.40;1.00
9943;DHT22;5010;45.080;7.634;2023-02-15T06:48:26;20.40;1.00
9943;DHT22;5010;45.080;7.634;2023-02-15T06:50:54;20.50;1.00
9943;DHT22;5010;45.080;7.634;2023-02-15T06:53:21;20.50;1.00
9943;DHT22;5010;45.080;7.634;2023-02-15T06:55:48;20.50;1.00
9943;DHT22;5010;45.080;7.634;2023-02-15T06:58:15;20.50;1.00
9943;DHT22;5010;45.080;7.634;2023-02-15T07:00:42;20.50;1.00
9943;DHT22;5010;45.080;7.634;2023-02-15T07:03:09;20.50;1.00
9943;DHT22;5010;45.080;7.634;2023-02-15T07:05:35;20.50;1.00
9943;DHT22;5010;45.080;7.634;2023-02-15T07:08:04;20.50;1.00
9943;DHT22;5010;45.080;7.634;2023-02-15T07:10:31;20.50;1.00
9943;DHT22;5010;45.080;7.634;2023-02-15T07:12:58;20.50;1.00
9943;DHT22;5010;45.080;7.634;2023-02-15T07:15:24;20.60;1.00
9943;DHT22;5010;45.080;7.634;2023-02-15T07:17:51;20.60;1.00
9943;DHT22;5010;45.080;7.634;2023-02-15T07:20:20;20.60;1.00
9943;DHT22;5010;45.080;7.634;2023-02-15T07:22:48;20.60;1.00
9943;DHT22;5010;45.080;7.634;2023-02-15T07:25:17;20.60;1.00
9943;DHT22;5010;45.080;7.634;2023-02-15T07:27:44;20.60;1.00
9943;DHT22;5010;45.080;7.634;2023-02-15T07:30:13;20.60;1.00
9943;DHT22;5010;45.080;7.634;2023-02-15T07:32:40;20.60;1.00
9943;DHT22;5010;45.080;7.634;2023-02-15T07:35:21;20.60;1.00
9943;DHT22;5010;45.080;7.634;2023-02-15T07:37:48;20.60;1.00
9943;DHT22;5010;45.080;7.634;2023-02-15T07:40:15;20.60;1.00
9943;DHT22;5010;45.080;7.634;2023-02-15T07:42:43;20.70;1.00
9943;DHT22;5010;45.080;7.634;2023-02-15T07:45:10;20.70;1.00
9943;DHT22;5010;45.080;7.634;2023-02-15T07:47:36;20.70;1.00
9943;DHT22;5010;45.080;7.634;2023-02-15T07:50:04;20.70;1.00
9943;DHT22;5010;45.080;7.634;2023-02-15T07:52:31;20.70;1.00
9943;DHT22;5010;45.080;7.634;2023-02-15T07:54:58;20.70;1.00
9943;DHT22;5010;45.080;7.634;2023-02-15T07:57:25;20.70;1.00
9943;DHT22;5010;45.080;7.634;2023-02-15T07:59:53;20.70;1.00
9943;DHT22;5010;45.080;7.634;2023-02-15T08:02:20;20.70;1.00
9943;DHT22;5010;45.080;7.634;2023-02-15T08:04:47;20.70;1.00
9943;DHT22;5010;45.080;7.634;2023-02-15T08:07:13;20.70;1.00
9943;DHT22;5010;45.080;7.634;2023-02-15T08:09:40;20.70;1.00
9943;DHT22;5010;45.080;7.634;2023-02-15T08:12:07;20.70;1.00
9943;DHT22;5010;45.080;7.634;2023-02-15T08:14:35;20.70;1.00
9943;DHT22;5010;45.080;7.634;2023-02-15T08:17:03;20.70;1.00
9943;DHT22;5010;45.080;7.634;2023-02-15T08:19:32;20.70;1.00
9943;DHT22;5010;45.080;7.634;2023-02-15T08:22:02;20.70;1.00
9943;DHT22;5010;45.080;7.634;2023-02-15T08:24:31;20.70;1.00
9943;DHT22;5010;45.080;7.634;2023-02-15T08:26:58;20.70;1.00
9943;DHT22;5010;45.080;7.634;2023-02-15T08:29:29;20.70;1.00
9943;DHT22;5010;45.080;7.634;2023-02-15T08:31:58;20.70;1.00
9943;DHT22;5010;45.080;7.634;2023-02-15T08:34:30;20.70;1.00
9943;DHT22;5010;45.080;7.634;2023-02-15T08:36:57;20.70;1.00
9943;DHT22;5010;45.080;7.634;2023-02-15T08:39:24;20.70;1.00
9943;DHT22;5010;45.080;7.634;2023-02-15T08:41:51;20.70;1.00
9943;DHT22;5010;45.080;7.634;2023-02-15T08:44:19;20.70;1.00
9943;DHT22;5010;45.080;7.634;2023-02-15T08:46:47;20.70;1.00
9943;DHT22;5010;45.080;7.634;2023-02-15T08:49:17;20.70;1.00
9943;DHT22;5010;45.080;7.634;2023-02-15T08:51:46;20.70;1.00
9943;DHT22;5010;45.080;7.634;2023-02-15T08:54:15;20.70;1.00
9943;DHT22;5010;45.080;7.634;2023-02-15T08:56:44;20.70;1.00
9943;DHT22;5010;45.080;7.634;2023-02-15T08:59:13;20.70;1.00
9943;DHT22;5010;45.080;7.634;2023-02-15T09:01:40;20.70;1.00
9943;DHT22;5010;45.080;7.634;2023-02-15T09:04:08;20.70;1.00
9943;DHT22;5010;45.080;7.634;2023-02-15T09:06:36;20.70;1.00
9943;DHT22;5010;45.080;7.634;2023-02-15T09:09:05;20.70;1.00
9943;DHT22;5010;45.080;7.634;2023-02-15T09:11:34;20.70;1.00
9943;DHT22;5010;45.080;7.634;2023-02-15T09:14:03;20.70;1.00
9943;DHT22;5010;45.080;7.634;2023-02-15T09:16:32;20.70;1.00
9943;DHT22;5010;45.080;7.634;2023-02-15T09:18:59;20.70;1.00
9943;DHT22;5010;45.080;7.634;2023-02-15T09:21:28;20.70;1.00
9943;DHT22;5010;45.080;7.634;2023-02-15T09:23:56;20.70;1.00
9943;DHT22;5010;45.080;7.634;2023-02-15T09:26:27;20.70;1.00
9943;DHT22;5010;45.080;7.634;2023-02-15T09:28:56;20.70;1.00
9943;DHT22;5010;45.080;7.634;2023-02-15T09:31:26;20.70;1.00
9943;DHT22;5010;45.080;7.634;2023-02-15T09:33:53;20.70;1.00
9943;DHT22;5010;45.080;7.634;2023-02-15T09:36:22;20.70;1.00
9943;DHT22;5010;45.080;7.634;2023-02-15T09:38:54;20.70;1.00
9943;DHT22;5010;45.080;7.634;2023-02-15T09:41:46;20.70;1.00
9943;DHT22;5010;45.080;7.634;2023-02-15T09:44:23;20.70;1.00
9943;DHT22;5010;45.080;7.634;2023-02-15T09:47:04;20.80;1.00
9943;DHT22;5010;45.080;7.634;2023-02-15T09:49:40;20.80;1.00
9943;DHT22;5010;45.080;7.634;2023-02-15T09:52:31;20.80;1.00
9943;DHT22;5010;45.080;7.634;2023-02-15T09:55:14;20.80;1.00
9943;DHT22;5010;45.080;7.634;2023-02-15T09:57:49;20.80;1.00
9943;DHT22;5010;45.080;7.634;2023-02-15T10:00:26;20.80;1.00
9943;DHT22;5010;45.080;7.634;2023-02-15T10:03:09;20.80;1.00
9943;DHT22;5010;45.080;7.634;2023-02-15T10:05:46;20.80;1.00
9943;DHT22;5010;45.080;7.634;2023-02-15T10:08:31;20.80;1.00
9943;DHT22;5010;45.080;7.634;2023-02-15T10:11:08;20.80;1.00
9943;DHT22;5010;45.080;7.634;2023-02-15T10:14:07;20.80;1.00
9943;DHT22;5010;45.080;7.634;2023-02-15T10:16:42;20.80;1.00
9943;DHT22;5010;45.080;7.634;2023-02-15T10:19:19;20.80;1.00
9943;DHT22;5010;45.080;7.634;2023-02-15T10:21:59;20.80;1.00
9943;DHT22;5010;45.080;7.634;2023-02-15T10:27:31;20.80;1.00
9943;DHT22;5010;45.080;7.634;2023-02-15T10:30:08;20.80;1.00
9943;DHT22;5010;45.080;7.634;2023-02-15T10:32:40;20.80;1.00
9943;DHT22;5010;45.080;7.634;2023-02-15T10:35:16;20.80;1.00
9943;DHT22;5010;45.080;7.634;2023-02-15T10:37:53;20.80;1.00
9943;DHT22;5010;45.080;7.634;2023-02-15T10:40:28;20.80;1.00
9943;DHT22;5010;45.080;7.634;2023-02-15T10:43:24;20.90;1.00
9943;DHT22;5010;45.080;7.634;2023-02-15T10:46:05;20.90;1.00
9943;DHT22;5010;45.080;7.634;2023-02-15T10:48:51;20.90;1.00
9943;DHT22;5010;45.080;7.634;2023-02-15T10:51:29;20.90;1.00
9943;DHT22;5010;45.080;7.634;2023-02-15T10:54:12;20.90;1.00
9943;DHT22;5010;45.080;7.634;2023-02-15T10:56:50;20.90;1.00
9943;DHT22;5010;45.080;7.634;2023-02-15T10:59:40;20.90;1.00
9943;DHT22;5010;45.080;7.634;2023-02-15T11:02:20;20.90;1.00
9943;DHT22;5010;45.080;7.634;2023-02-15T11:04:57;20.90;1.00
9943;DHT22;5010;45.080;7.634;2023-02-15T11:07:32;21.00;1.00
9943;DHT22;5010;45.080;7.634;2023-02-15T11:10:11;21.00;1.00
9943;DHT22;5010;45.080;7.634;2023-02-15T11:12:41;21.00;1.00
9943;DHT22;5010;45.080;7.634;2023-02-15T11:15:15;21.00;1.00
9943;DHT22;5010;45.080;7.634;2023-02-15T11:17:48;21.00;1.00
9943;DHT22;5010;45.080;7.634;2023-02-15T11:20:23;21.00;1.00
9943;DHT22;5010;45.080;7.634;2023-02-15T11:22:52;21.00;1.00
9943;DHT22;5010;45.080;7.634;2023-02-15T11:25:24;21.00;1.00
9943;DHT22;5010;45.080;7.634;2023-02-15T11:27:52;21.10;1.00
9943;DHT22;5010;45.080;7.634;2023-02-15T11:30:21;21.10;1.00
9943;DHT22;5010;45.080;7.634;2023-02-15T11:32:52;21.10;1.00
9943;DHT22;5010;45.080;7.634;2023-02-15T11:35:25;21.10;1.00
9943;DHT22;5010;45.080;7.634;2023-02-15T11:37:57;21.10;1.00
9943;DHT22;5010;45.080;7.634;2023-02-15T11:40:27;21.20;1.00
9943;DHT22;5010;45.080;7.634;2023-02-15T11:42:56;21.10;1.00
9943;DHT22;5010;45.080;7.634;2023-02-15T11:45:28;21.10;1.00
9943;DHT22;5010;45.080;7.634;2023-02-15T11:47:57;21.20;1.00
9943;DHT22;5010;45.080;7.634;2023-02-15T11:50:26;21.20;1.00
9943;DHT22;5010;45.080;7.634;2023-02-15T11:52:58;21.20;1.00
9943;DHT22;5010;45.080;7.634;2023-02-15T11:55:27;21.20;1.00
9943;DHT22;5010;45.080;7.634;2023-02-15T11:57:57;21.20;1.00
9943;DHT22;5010;45.080;7.634;2023-02-15T12:00:32;21.20;1.00
9943;DHT22;5010;45.080;7.634;2023-02-15T12:03:07;21.20;1.00
9943;DHT22;5010;45.080;7.634;2023-02-15T12:05:39;21.20;1.00
9943;DHT22;5010;45.080;7.634;2023-02-15T12:08:13;21.30;1.00
9943;DHT22;5010;45.080;7.634;2023-02-15T12:10:46;21.30;1.00
9943;DHT22;5010;45.080;7.634;2023-02-15T12:13:19;21.30;1.00
9943;DHT22;5010;45.080;7.634;2023-02-15T12:15:47;21.30;1.00
9943;DHT22;5010;45.080;7.634;2023-02-15T12:18:26;21.30;1.00
9943;DHT22;5010;45.080;7.634;2023-02-15T12:20:58;21.40;1.00
9943;DHT22;5010;45.080;7.634;2023-02-15T12:23:28;21.40;1.00
9943;DHT22;5010;45.080;7.634;2023-02-15T12:25:56;21.50;1.00
9943;DHT22;5010;45.080;7.634;2023-02-15T12:28:30;21.50;1.00
9943;DHT22;5010;45.080;7.634;2023-02-15T12:30:58;21.50;1.00
9943;DHT22;5010;45.080;7.634;2023-02-15T12:33:29;21.60;1.00
9943;DHT22;5010;45.080;7.634;2023-02-15T12:35:59;21.60;1.00
9943;DHT22;5010;45.080;7.634;2023-02-15T12:38:28;21.60;1.00
9943;DHT22;5010;45.080;7.634;2023-02-15T12:41:00;21.60;1.00
9943;DHT22;5010;45.080;7.634;2023-02-15T12:43:31;21.70;1.00
9943;DHT22;5010;45.080;7.634;2023-02-15T12:46:21;21.70;1.00
9943;DHT22;5010;45.080;7.634;2023-02-15T12:49:05;21.80;1.00
9943;DHT22;5010;45.080;7.634;2023-02-15T12:51:43;21.80;1.00
9943;DHT22;5010;45.080;7.634;2023-02-15T12:57:17;21.80;1.00
9943;DHT22;5010;45.080;7.634;2023-02-15T12:59:51;21.80;1.00
9943;DHT22;5010;45.080;7.634;2023-02-15T13:02:25;21.80;1.00
9943;DHT22;5010;45.080;7.634;2023-02-15T13:04:55;21.90;1.00
9943;DHT22;5010;45.080;7.634;2023-02-15T13:07:25;22.00;1.00
9943;DHT22;5010;45.080;7.634;2023-02-15T13:09:56;22.00;1.00
9943;DHT22;5010;45.080;7.634;2023-02-15T13:12:24;22.10;1.00
9943;DHT22;5010;45.080;7.634;2023-02-15T13:14:54;22.10;1.00
9943;DHT22;5010;45.080;7.634;2023-02-15T13:17:24;22.20;1.00
9943;DHT22;5010;45.080;7.634;2023-02-15T13:19:58;22.20;1.00
9943;DHT22;5010;45.080;7.634;2023-02-15T13:22:31;22.20;1.00
9943;DHT22;5010;45.080;7.634;2023-02-15T13:25:04;22.20;1.00
9943;DHT22;5010;45.080;7.634;2023-02-15T13:27:35;22.20;1.00
9943;DHT22;5010;45.080;7.634;2023-02-15T13:30:20;22.30;1.00
9943;DHT22;5010;45.080;7.634;2023-02-15T13:32:50;22.30;1.00
9943;DHT22;5010;45.080;7.634;2023-02-15T13:35:20;22.30;1.00
9943;DHT22;5010;45.080;7.634;2023-02-15T13:40:48;22.30;1.00
9943;DHT22;5010;45.080;7.634;2023-02-15T13:43:36;22.30;1.00
9943;DHT22;5010;45.080;7.634;2023-02-15T13:46:18;22.30;1.00
9943;DHT22;5010;45.080;7.634;2023-02-15T13:48:56;22.40;1.00
9943;DHT22;5010;45.080;7.634;2023-02-15T13:51:33;22.40;1.00
9943;DHT22;5010;45.080;7.634;2023-02-15T13:54:13;22.40;1.00
9943;DHT22;5010;45.080;7.634;2023-02-15T13:56:51;22.40;1.00
9943;DHT22;5010;45.080;7.634;2023-02-15T13:59:31;22.40;1.00
9943;DHT22;5010;45.080;7.634;2023-02-15T14:02:32;22.40;1.00
9943;DHT22;5010;45.080;7.634;2023-02-15T14:05:21;22.40;1.00
9943;DHT22;5010;45.080;7.634;2023-02-15T14:07:56;22.40;1.00
9943;DHT22;5010;45.080;7.634;2023-02-15T14:10:36;22.40;1.00
9943;DHT22;5010;45.080;7.634;2023-02-15T14:16:33;22.40;1.00
9943;DHT22;5010;45.080;7.634;2023-02-15T14:19:09;22.40;1.00
9943;DHT22;5010;45.080;7.634;2023-02-15T14:21:45;22.40;1.00
9943;DHT22;5010;45.080;7.634;2023-02-15T14:24:24;22.40;1.00
9943;DHT22;5010;45.080;7.634;2023-02-15T14:27:01;22.40;1.00
9943;DHT22;5010;45.080;7.634;2023-02-15T14:29:45;22.40;1.00
9943;DHT22;5010;45.080;7.634;2023-02-15T14:32:17;22.30;1.00
9943;DHT22;5010;45.080;7.634;2023-02-15T14:34:50;22.30;1.00
9943;DHT22;5010;45.080;7.634;2023-02-15T14:37:24;22.30;1.00
9943;DHT22;5010;45.080;7.634;2023-02-15T14:40:00;22.30;1.00
9943;DHT22;5010;45.080;7.634;2023-02-15T14:42:51;22.20;1.00
9943;DHT22;5010;45.080;7.634;2023-02-15T14:45:23;22.20;1.00
9943;DHT22;5010;45.080;7.634;2023-02-15T14:48:02;22.10;1.00
9943;DHT22;5010;45.080;7.634;2023-02-15T14:50:40;22.10;1.00
9943;DHT22;5010;45.080;7.634;2023-02-15T14:53:35;22.10;1.00
9943;DHT22;5010;45.080;7.634;2023-02-15T14:56:20;22.10;1.00
9943;DHT22;5010;45.080;7.634;2023-02-15T15:02:03;22.00;1.00
9943;DHT22;5010;45.080;7.634;2023-02-15T15:04:38;21.90;1.00
9943;DHT22;5010;45.080;7.634;2023-02-15T15:07:12;21.90;1.00
9943;DHT22;5010;45.080;7.634;2023-02-15T15:09:43;21.90;1.00
9943;DHT22;5010;45.080;7.634;2023-02-15T15:12:39;21.80;1.00
9943;DHT22;5010;45.080;7.634;2023-02-15T15:15:07;21.80;1.00
9943;DHT22;5010;45.080;7.634;2023-02-15T15:17:57;21.80;1.00
9943;DHT22;5010;45.080;7.634;2023-02-15T15:20:39;21.70;1.00
9943;DHT22;5010;45.080;7.634;2023-02-15T15:26:34;21.70;1.00
9943;DHT22;5010;45.080;7.634;2023-02-15T15:29:05;21.60;1.00
9943;DHT22;5010;45.080;7.634;2023-02-15T15:31:46;21.60;1.00
9943;DHT22;5010;45.080;7.634;2023-02-15T15:37:54;21.50;1.00
9943;DHT22;5010;45.080;7.634;2023-02-15T15:41:02;21.60;1.00
9943;DHT22;5010;45.080;7.634;2023-02-15T15:44:11;21.60;1.00
9943;DHT22;5010;45.080;7.634;2023-02-15T15:49:40;21.40;1.00
9943;DHT22;5010;45.080;7.634;2023-02-15T15:52:13;21.40;1.00
9943;DHT22;5010;45.080;7.634;2023-02-15T15:54:41;21.40;1.00
9943;DHT22;5010;45.080;7.634;2023-02-15T15:57:18;21.40;1.00
9943;DHT22;5010;45.080;7.634;2023-02-15T15:59:47;21.40;1.00
9943;DHT22;5010;45.080;7.634;2023-02-15T16:02:16;21.30;1.00
9943;DHT22;5010;45.080;7.634;2023-02-15T16:04:44;21.30;1.00
9943;DHT22;5010;45.080;7.634;2023-02-15T16:07:25;21.20;1.00
9943;DHT22;5010;45.080;7.634;2023-02-15T16:09:57;21.20;1.00
9943;DHT22;5010;45.080;7.634;2023-02-15T16:12:25;21.20;1.00
9943;DHT22;5010;45.080;7.634;2023-02-15T16:14:54;21.20;1.00
9943;DHT22;5010;45.080;7.634;2023-02-15T16:17:24;21.20;1.00
9943;DHT22;5010;45.080;7.634;2023-02-15T16:19:52;21.20;1.00
9943;DHT22;5010;45.080;7.634;2023-02-15T16:22:21;21.20;1.00
9943;DHT22;5010;45.080;7.634;2023-02-15T16:27:55;21.20;1.00
9943;DHT22;5010;45.080;7.634;2023-02-15T16:30:26;21.10;1.00
9943;DHT22;5010;45.080;7.634;2023-02-15T16:32:54;21.10;1.00
9943;DHT22;5010;45.080;7.634;2023-02-15T16:35:22;21.10;1.00
9943;DHT22;5010;45.080;7.634;2023-02-15T16:37:50;21.10;1.00
9943;DHT22;5010;45.080;7.634;2023-02-15T16:43:16;21.10;1.00
9943;DHT22;5010;45.080;7.634;2023-02-15T16:45:45;21.00;1.00
9943;DHT22;5010;45.080;7.634;2023-02-15T16:48:17;21.00;1.00
9943;DHT22;5010;45.080;7.634;2023-02-15T16:50:48;21.00;1.00
9943;DHT22;5010;45.080;7.634;2023-02-15T16:53:22;21.00;1.00
9943;DHT22;5010;45.080;7.634;2023-02-15T16:55:52;20.90;1.00
9943;DHT22;5010;45.080;7.634;2023-02-15T16:58:26;20.90;1.00
9943;DHT22;5010;45.080;7.634;2023-02-15T17:00:58;20.90;1.00
9943;DHT22;5010;45.080;7.634;2023-02-15T17:03:26;20.90;1.00
9943;DHT22;5010;45.080;7.634;2023-02-15T17:05:54;20.90;1.00
9943;DHT22;5010;45.080;7.634;2023-02-15T17:08:27;20.90;1.00
9943;DHT22;5010;45.080;7.634;2023-02-15T17:11:04;20.90;1.00
9943;DHT22;5010;45.080;7.634;2023-02-15T17:13:32;20.80;1.00
9943;DHT22;5010;45.080;7.634;2023-02-15T17:16:25;20.80;1.00
9943;DHT22;5010;45.080;7.634;2023-02-15T17:18:53;20.80;1.00
9943;DHT22;5010;45.080;7.634;2023-02-15T17:21:27;20.80;1.00
9943;DHT22;5010;45.080;7.634;2023-02-15T17:23:58;20.80;1.00
9943;DHT22;5010;45.080;7.634;2023-02-15T17:26:29;20.80;1.00